Time;durP1;ratioP1;P1;durP2;ratioP2;P2;SDS_P1;SDS_P2;PMS_P1;PMS_P2;Temp;Humidity;BMP_temperature;BMP_pressure;BME280_temperature;BME280_humidity;BME280_pressure;Samples;Min_cycle;Max_cycle;Signal;HPM_P1;HPM_P2
2022/11/18 00:02:58;;;;;;;17.02;10.48;;;;;;;;;;10465078;28;20086;-76
2022/11/18 00:07:58;;;;;;;18.53;10.17;;;;;;;;;;10467329;28;20203;-77
2022/11/18 00:18:19;;;;;;;15.13;9.18;;;;;;;;;;10481685;28;20059;-75
2022/11/18 00:23:19;;;;;;;16.83;8.82;;;;;;;;;;10480256;28;20024;-76
2022/11/18 00:28:20;;;;;;;10.57;6.90;;;;;;;;;;10482926;28;20052;-75
2022/11/18 00:33:20;;;;;;;14.82;8.65;;;;;;;;;;10467346;28;20431;-75
2022/11/18 00:38:21;;;;;;;11.23;8.10;;;;;;;;;;10476044;28;20167;-74
2022/11/18 00:43:21;;;;;;;13.88;7.95;;;;;;;;;;10479810;28;20574;-75
2022/11/18 00:48:22;;;;;;;14.63;8.60;;;;;;;;;;10483483;28;20481;-75
2022/11/18 00:53:23;;;;;;;12.23;7.80;;;;;;;;;;10477315;28;20616;-76
2022/11/18 00:58:23;;;;;;;14.65;8.45;;;;;;;;;;10459475;28;20437;-76
2022/11/18 01:03:24;;;;;;;18.40;8.60;;;;;;;;;;10479845;28;20028;-75
2022/11/18 01:08:24;;;;;;;14.68;7.95;;;;;;;;;;10479781;28;20303;-75
2022/11/18 01:13:27;;;;;;;8.67;6.27;;;;;;;;;;10460361;28;20067;-75
2022/11/18 01:18:29;;;;;;;11.02;6.90;;;;;;;;;;10458040;28;20289;-77
2022/11/18 01:23:30;;;;;;;11.00;6.93;;;;;;;;;;10474779;28;20033;-79
2022/11/18 01:28:30;;;;;;;13.13;7.35;;;;;;;;;;10484176;28;20048;-77
2022/11/18 01:33:30;;;;;;;10.30;7.00;;;;;;;;;;10478936;28;20755;-77
2022/11/18 01:38:31;;;;;;;10.10;6.57;;;;;;;;;;10477189;28;20619;-77
2022/11/18 01:43:50;;;;;;;10.40;6.40;;;;;;;;;;10472918;28;20043;-77
2022/11/18 01:49:11;;;;;;;9.43;5.47;;;;;;;;;;10478638;28;20138;-76
2022/11/18 01:54:15;;;;;;;11.50;7.18;;;;;;;;;;10480585;28;20131;-75
2022/11/18 01:59:18;;;;;;;11.45;6.78;;;;;;;;;;10487172;28;20036;-76
2022/11/18 02:04:18;;;;;;;11.05;6.18;;;;;;;;;;10479039;28;20044;-76
2022/11/18 02:09:19;;;;;;;10.27;6.70;;;;;;;;;;10459612;28;20056;-75
2022/11/18 02:14:28;;;;;;;12.32;7.10;;;;;;;;;;10479222;28;20026;-76
2022/11/18 02:19:35;;;;;;;13.77;7.90;;;;;;;;;;10449595;28;20029;-76
2022/11/18 02:24:41;;;;;;;11.63;7.18;;;;;;;;;;10461579;28;20416;-75
2022/11/18 02:29:44;;;;;;;12.30;6.93;;;;;;;;;;10479828;28;20036;-74
2022/11/18 02:34:50;;;;;;;14.80;7.25;;;;;;;;;;10511817;28;20090;-77
2022/11/18 02:39:57;;;;;;;10.88;7.35;;;;;;;;;;10502031;28;20037;-75
2022/11/18 02:45:01;;;;;;;13.82;7.85;;;;;;;;;;10483727;28;20043;-76
2022/11/18 02:50:07;;;;;;;14.95;7.90;;;;;;;;;;10454757;28;20087;-77
2022/11/18 02:55:09;;;;;;;19.13;8.02;;;;;;;;;;10512894;28;20033;-76
2022/11/18 03:00:10;;;;;;;12.30;6.85;;;;;;;;;;10504217;28;20119;-75
2022/11/18 03:05:24;;;;;;;12.38;7.47;;;;;;;;;;10514508;28;20033;-74
2022/11/18 03:10:30;;;;;;;15.60;7.53;;;;;;;;;;10489306;28;20106;-76
2022/11/18 03:15:54;;;;;;;12.70;7.18;;;;;;;;;;10481755;28;20033;-75
2022/11/18 03:20:55;;;;;;;;;;;;;;;;;;10484049;28;20045;-75
2022/11/18 03:26:04;;;;;;;16.70;8.00;;;;;;;;;;10471302;28;19917;-75
2022/11/18 03:31:04;;;;;;;24.08;10.70;;;;;;;;;;10496036;28;20330;-73
2022/11/18 03:36:08;;;;;;;23.10;10.27;;;;;;;;;;10479968;28;20103;-75
2022/11/18 03:41:10;;;;;;;17.02;9.73;;;;;;;;;;10489772;28;20330;-75
2022/11/18 03:46:14;;;;;;;16.58;9.60;;;;;;;;;;10462861;28;20029;-74
2022/11/18 03:51:17;;;;;;;20.30;11.77;;;;;;;;;;10473074;28;20472;-74
2022/11/18 03:56:17;;;;;;;;;;;;;;;;;;10465604;28;20473;-75
2022/11/18 04:01:23;;;;;;;22.30;12.35;;;;;;;;;;10479754;28;19943;-74
2022/11/18 04:06:36;;;;;;;23.38;12.43;;;;;;;;;;10463814;28;20090;-75
2022/11/18 04:17:04;;;;;;;21.55;13.13;;;;;;;;;;10463024;28;20428;-75
2022/11/18 04:22:05;;;;;;;20.38;12.00;;;;;;;;;;10467718;28;20050;-77
2022/11/18 04:27:05;;;;;;;24.50;13.45;;;;;;;;;;10477141;28;20487;-74
2022/11/18 04:32:06;;;;;;;24.55;13.70;;;;;;;;;;10453288;28;20498;-74
2022/11/18 04:37:06;;;;;;;20.38;12.43;;;;;;;;;;10471406;28;20025;-75
2022/11/18 04:42:07;;;;;;;18.73;11.55;;;;;;;;;;10459320;28;20041;-75
2022/11/18 04:47:07;;;;;;;26.80;13.50;;;;;;;;;;10466645;28;20040;-74
2022/11/18 04:52:08;;;;;;;24.70;13.38;;;;;;;;;;10446096;28;20039;-74
2022/11/18 04:57:09;;;;;;;20.77;11.70;;;;;;;;;;10474720;28;20048;-73
2022/11/18 05:02:09;;;;;;;26.75;12.07;;;;;;;;;;10451411;28;20028;-76
2022/11/18 05:07:12;;;;;;;20.70;12.07;;;;;;;;;;10447469;28;20101;-75
2022/11/18 05:17:33;;;;;;;13.73;9.13;;;;;;;;;;10471207;28;20295;-74
2022/11/18 05:22:34;;;;;;;16.98;10.00;;;;;;;;;;10454866;28;20028;-74
2022/11/18 05:27:35;;;;;;;15.30;9.88;;;;;;;;;;10459258;28;20187;-73
2022/11/18 05:32:35;;;;;;;16.93;10.57;;;;;;;;;;10480013;28;20457;-72
2022/11/18 05:37:35;;;;;;;16.00;10.05;;;;;;;;;;10445669;28;20839;-74
2022/11/18 05:48:03;;;;;;;13.25;8.50;;;;;;;;;;10457264;28;20305;-74
2022/11/18 05:53:05;;;;;;;15.07;9.15;;;;;;;;;;10442615;28;20033;-74
2022/11/18 05:58:05;;;;;;;15.05;9.32;;;;;;;;;;10449097;28;20473;-73
2022/11/18 06:03:12;;;;;;;12.20;8.27;;;;;;;;;;10471227;28;20033;-74
2022/11/18 06:08:13;;;;;;;15.93;9.43;;;;;;;;;;10459577;28;20310;-74
2022/11/18 06:13:17;;;;;;;12.95;8.68;;;;;;;;;;10466796;28;20041;-75
2022/11/18 06:18:18;;;;;;;22.35;11.45;;;;;;;;;;10440812;28;20068;-74
2022/11/18 06:23:18;;;;;;;14.20;9.32;;;;;;;;;;10442199;28;20127;-76
2022/11/18 06:28:20;;;;;;;19.90;12.05;;;;;;;;;;10474844;28;20036;-76
2022/11/18 06:33:20;;;;;;;18.17;11.35;;;;;;;;;;10473753;28;20768;-75
2022/11/18 06:38:24;;;;;;;16.60;10.93;;;;;;;;;;10471887;28;20082;-75
2022/11/18 06:43:42;;;;;;;15.25;10.07;;;;;;;;;;10465303;28;20280;-75
2022/11/18 06:48:44;;;;;;;16.08;10.38;;;;;;;;;;10465483;28;20037;-77
2022/11/18 06:53:46;;;;;;;16.38;10.48;;;;;;;;;;10480219;28;20047;-77
2022/11/18 06:58:46;;;;;;;15.82;9.98;;;;;;;;;;10489817;28;20066;-77
2022/11/18 07:03:47;;;;;;;13.95;8.40;;;;;;;;;;10485230;28;20157;-74
2022/11/18 07:08:48;;;;;;;15.80;9.55;;;;;;;;;;10454868;28;20040;-77
2022/11/18 07:13:49;;;;;;;13.25;9.15;;;;;;;;;;10483056;28;20362;-76
2022/11/18 07:18:49;;;;;;;11.60;7.68;;;;;;;;;;10485901;28;20028;-77
2022/11/18 07:23:50;;;;;;;13.20;7.97;;;;;;;;;;10489226;28;20040;-76
2022/11/18 07:28:50;;;;;;;10.82;8.02;;;;;;;;;;10473854;28;20044;-75
2022/11/18 07:33:54;;;;;;;10.82;7.70;;;;;;;;;;10460801;28;20036;-78
2022/11/18 07:38:57;;;;;;;11.25;7.50;;;;;;;;;;10480376;28;20492;-76
2022/11/18 07:43:58;;;;;;;12.33;7.37;;;;;;;;;;10487293;28;20106;-77
2022/11/18 07:49:00;;;;;;;12.80;8.25;;;;;;;;;;10471799;28;20036;-77
2022/11/18 07:54:04;;;;;;;13.68;8.23;;;;;;;;;;10476458;28;20065;-77
2022/11/18 07:59:05;;;;;;;12.05;8.68;;;;;;;;;;10478306;28;20540;-76
2022/11/18 08:04:06;;;;;;;13.27;5.82;;;;;;;;;;10479228;28;20136;-76
2022/11/18 08:09:07;;;;;;;5.65;4.00;;;;;;;;;;10482367;28;20094;-76
2022/11/18 08:14:07;;;;;;;3.70;2.60;;;;;;;;;;10474150;28;20168;-77
2022/11/18 08:19:08;;;;;;;2.75;2.40;;;;;;;;;;10480650;28;20028;-76
2022/11/18 08:24:08;;;;;;;2.03;1.80;;;;;;;;;;10469628;28;20028;-76
2022/11/18 08:29:09;;;;;;;2.63;2.00;;;;;;;;;;10461029;28;20841;-77
2022/11/18 08:34:09;;;;;;;2.57;1.93;;;;;;;;;;10461302;28;20028;-74
2022/11/18 08:39:10;;;;;;;2.10;1.70;;;;;;;;;;10484069;28;20286;-76
2022/11/18 08:44:12;;;;;;;2.83;2.10;;;;;;;;;;10482084;28;20040;-76
2022/11/18 08:49:13;;;;;;;5.47;2.00;;;;;;;;;;10471579;28;20040;-75
2022/11/18 08:54:13;;;;;;;2.10;1.90;;;;;;;;;;10480259;28;20047;-76
2022/11/18 08:59:14;;;;;;;2.08;1.77;;;;;;;;;;10458789;28;20025;-75
2022/11/18 09:04:14;;;;;;;2.28;2.00;;;;;;;;;;10476110;28;20374;-77
2022/11/18 09:09:15;;;;;;;2.70;1.52;;;;;;;;;;10493167;28;20041;-76
2022/11/18 09:14:17;;;;;;;2.17;1.50;;;;;;;;;;10512117;28;20054;-75
2022/11/18 09:19:17;;;;;;;3.15;1.60;;;;;;;;;;10511527;28;20279;-75
2022/11/18 09:24:18;;;;;;;1.65;1.55;;;;;;;;;;10487786;28;20380;-74
2022/11/18 09:29:24;;;;;;;1.80;1.30;;;;;;;;;;10476440;28;20158;-74
2022/11/18 09:34:24;;;;;;;1.55;1.40;;;;;;;;;;10464334;28;20082;-76
2022/11/18 09:39:24;;;;;;;3.83;1.67;;;;;;;;;;10489393;28;20036;-75
2022/11/18 09:44:50;;;;;;;2.50;1.60;;;;;;;;;;10457770;28;20398;-75
2022/11/18 09:49:52;;;;;;;3.53;1.50;;;;;;;;;;10457819;28;20055;-75
2022/11/18 09:54:52;;;;;;;1.58;1.42;;;;;;;;;;10481741;28;20041;-74
2022/11/18 09:59:53;;;;;;;2.08;1.80;;;;;;;;;;10472446;28;20532;-75
2022/11/18 10:04:54;;;;;;;1.70;1.35;;;;;;;;;;10457254;28;20032;-74
2022/11/18 10:09:55;;;;;;;1.77;1.50;;;;;;;;;;10480630;28;20040;-75
2022/11/18 10:15:16;;;;;;;1.50;1.40;;;;;;;;;;10451364;28;20037;-76
2022/11/18 10:20:21;;;;;;;1.23;1.13;;;;;;;;;;10481988;28;20423;-75
2022/11/18 10:25:22;;;;;;;1.90;1.70;;;;;;;;;;10485631;28;20574;-76
2022/11/18 10:30:24;;;;;;;2.20;1.23;;;;;;;;;;10471173;28;20060;-75
2022/11/18 10:35:32;;;;;;;1.60;1.50;;;;;;;;;;10487856;28;20028;-75
2022/11/18 10:40:33;;;;;;;1.85;1.40;;;;;;;;;;10490798;28;20040;-76
2022/11/18 10:45:33;;;;;;;1.70;1.60;;;;;;;;;;10480793;28;20032;-75
2022/11/18 10:50:35;;;;;;;2.25;1.63;;;;;;;;;;10479038;28;20041;-77
2022/11/18 10:55:36;;;;;;;1.90;1.63;;;;;;;;;;10483808;28;20037;-75
2022/11/18 11:00:41;;;;;;;1.90;1.80;;;;;;;;;;10488979;28;20032;-76
2022/11/18 11:05:44;;;;;;;1.90;1.67;;;;;;;;;;10477166;28;20306;-78
2022/11/18 11:10:55;;;;;;;2.47;1.90;;;;;;;;;;10471535;28;20060;-76
2022/11/18 11:15:59;;;;;;;2.15;1.83;;;;;;;;;;10472883;28;20032;-76
2022/11/18 11:21:00;;;;;;;2.90;2.30;;;;;;;;;;10485473;28;20041;-76
2022/11/18 11:26:11;;;;;;;4.27;3.13;;;;;;;;;;10464812;28;20037;-77
2022/11/18 11:31:17;;;;;;;2.90;2.58;;;;;;;;;;10473116;28;20330;-76
2022/11/18 11:36:31;;;;;;;2.97;2.40;;;;;;;;;;10473600;28;20067;-76
2022/11/18 11:41:37;;;;;;;2.58;2.38;;;;;;;;;;10494262;28;20055;-76
2022/11/18 11:52:33;;;;;;;9.20;6.50;;;;;;;;;;10530594;28;20046;-76
2022/11/18 11:57:52;;;;;;;2.50;2.30;;;;;;;;;;10535511;28;20028;-76
2022/11/18 12:03:11;;;;;;;3.10;2.80;;;;;;;;;;10501658;28;20128;-77
2022/11/18 12:08:15;;;;;;;3.40;3.03;;;;;;;;;;10505524;28;20049;-75
2022/11/18 12:13:33;;;;;;;3.53;3.20;;;;;;;;;;10484388;28;20040;-76
2022/11/18 12:18:34;;;;;;;3.25;2.88;;;;;;;;;;10476974;28;20029;-76
2022/11/18 12:23:34;;;;;;;3.27;2.80;;;;;;;;;;10474905;28;20029;-75
2022/11/18 12:28:42;;;;;;;3.00;2.70;;;;;;;;;;10465266;28;20041;-77
2022/11/18 12:33:42;;;;;;;2.70;2.28;;;;;;;;;;10465056;28;20841;-76
2022/11/18 12:38:43;;;;;;;3.30;2.93;;;;;;;;;;10478306;28;20033;-76
2022/11/18 12:43:48;;;;;;;2.70;2.47;;;;;;;;;;10465182;28;20185;-75
2022/11/18 12:48:48;;;;;;;2.50;2.30;;;;;;;;;;10483929;28;20091;-76
2022/11/18 12:53:50;;;;;;;3.08;2.55;;;;;;;;;;10482884;28;20128;-78
2022/11/18 12:58:54;;;;;;;3.03;2.72;;;;;;;;;;10452654;28;20039;-81
2022/11/18 13:04:27;;;;;;;4.28;3.15;;;;;;;;;;10484795;28;20414;-81
2022/11/18 13:09:31;;;;;;;3.70;3.05;;;;;;;;;;10439340;28;20060;-79
2022/11/18 13:19:55;;;;;;;4.75;3.60;;;;;;;;;;10469290;28;20172;-78
2022/11/18 13:24:56;;;;;;;3.85;3.30;;;;;;;;;;10479589;28;20024;-78
2022/11/18 13:30:02;;;;;;;5.32;3.15;;;;;;;;;;10480584;28;20094;-79
2022/11/18 13:35:19;;;;;;;4.35;3.88;;;;;;;;;;10466734;28;20033;-80
2022/11/18 13:40:19;;;;;;;5.32;4.05;;;;;;;;;;10484115;28;20028;-79
2022/11/18 13:45:22;;;;;;;4.38;3.80;;;;;;;;;;10461297;28;20032;-81
2022/11/18 13:50:34;;;;;;;4.67;3.70;;;;;;;;;;10473824;28;20074;-78
2022/11/18 13:55:37;;;;;;;3.80;3.40;;;;;;;;;;10481084;28;20036;-80
2022/11/18 14:00:37;;;;;;;3.45;3.15;;;;;;;;;;10461660;28;20041;-78
2022/11/18 14:05:38;;;;;;;4.75;4.20;;;;;;;;;;10446512;28;20066;-78
2022/11/18 14:10:41;;;;;;;4.95;3.78;;;;;;;;;;10461067;28;20435;-77
2022/11/18 14:15:42;;;;;;;5.17;3.53;;;;;;;;;;10458890;28;20136;-77
2022/11/18 14:20:48;;;;;;;9.32;5.63;;;;;;;;;;10475303;28;20044;-77
2022/11/18 14:25:48;;;;;;;4.85;4.22;;;;;;;;;;10481418;28;20037;-78
2022/11/18 14:30:56;;;;;;;3.65;3.25;;;;;;;;;;10472292;28;20041;-76
2022/11/18 14:35:59;;;;;;;3.92;3.28;;;;;;;;;;10475150;28;20054;-76
2022/11/18 14:41:02;;;;;;;4.32;3.67;;;;;;;;;;10467028;28;20135;-75
2022/11/18 14:46:11;;;;;;;6.30;4.10;;;;;;;;;;10475887;28;20124;-76
2022/11/18 14:51:15;;;;;;;3.92;3.53;;;;;;;;;;10448685;28;20055;-75
2022/11/18 14:56:19;;;;;;;5.65;4.28;;;;;;;;;;10463280;28;20040;-77
2022/11/18 15:01:20;;;;;;;5.57;4.20;;;;;;;;;;10488379;28;20468;-77
2022/11/18 15:06:20;;;;;;;6.07;4.40;;;;;;;;;;10475732;28;20095;-76
2022/11/18 15:11:21;;;;;;;6.25;4.03;;;;;;;;;;10453377;28;20051;-77
2022/11/18 15:16:26;;;;;;;4.53;4.07;;;;;;;;;;10464476;28;20435;-76
2022/11/18 15:21:26;;;;;;;5.05;4.18;;;;;;;;;;10483504;28;20037;-75
2022/11/18 15:26:28;;;;;;;5.22;4.38;;;;;;;;;;10455491;28;20048;-78
2022/11/18 15:31:29;;;;;;;5.72;4.63;;;;;;;;;;10484738;28;20048;-76
2022/11/18 15:36:29;;;;;;;5.57;4.38;;;;;;;;;;10476545;28;20125;-78
2022/11/18 15:41:30;;;;;;;6.33;4.93;;;;;;;;;;10486078;28;20048;-78
2022/11/18 15:46:32;;;;;;;6.93;4.85;;;;;;;;;;10470613;28;20279;-78
2022/11/18 15:51:34;;;;;;;6.95;5.53;;;;;;;;;;10486148;28;20119;-80
2022/11/18 15:56:34;;;;;;;7.00;4.80;;;;;;;;;;10483890;28;20186;-80
2022/11/18 16:01:37;;;;;;;7.03;5.28;;;;;;;;;;10472105;28;20054;-78
2022/11/18 16:06:37;;;;;;;7.28;5.35;;;;;;;;;;10486025;28;20060;-77
2022/11/18 16:16:57;;;;;;;7.18;5.57;;;;;;;;;;10467655;28;20040;-76
2022/11/18 16:21:57;;;;;;;7.72;6.20;;;;;;;;;;10482339;28;20035;-80
2022/11/18 16:26:57;;;;;;;8.52;6.20;;;;;;;;;;10483973;28;20025;-78
2022/11/18 16:31:58;;;;;;;7.70;5.83;;;;;;;;;;10485839;28;20040;-78
2022/11/18 16:37:00;;;;;;;9.98;7.00;;;;;;;;;;10471498;28;20291;-77
2022/11/18 16:42:01;;;;;;;11.75;8.52;;;;;;;;;;10473563;28;20080;-78
2022/11/18 16:47:02;;;;;;;10.73;8.23;;;;;;;;;;10490029;28;20024;-79
2022/11/18 16:52:02;;;;;;;12.35;8.35;;;;;;;;;;10497463;28;20044;-77
2022/11/18 16:57:03;;;;;;;13.15;8.02;;;;;;;;;;10486432;28;20495;-77
2022/11/18 17:02:04;;;;;;;7.03;5.10;;;;;;;;;;10482265;28;20025;-76
2022/11/18 17:07:04;;;;;;;5.60;3.88;;;;;;;;;;10479426;28;20646;-78
2022/11/18 17:12:06;;;;;;;3.10;2.72;;;;;;;;;;10463186;28;20036;-79
2022/11/18 17:17:07;;;;;;;2.83;2.45;;;;;;;;;;10480686;28;20033;-76
2022/11/18 17:22:07;;;;;;;3.55;2.58;;;;;;;;;;10464408;28;20025;-77
2022/11/18 17:27:08;;;;;;;3.20;2.30;;;;;;;;;;10474116;28;20069;-76
2022/11/18 17:32:09;;;;;;;4.03;2.30;;;;;;;;;;10477061;28;20033;-78
2022/11/18 17:37:09;;;;;;;7.22;4.32;;;;;;;;;;10466358;28;20293;-79
2022/11/18 17:42:13;;;;;;;5.43;3.03;;;;;;;;;;10486586;28;20041;-78
2022/11/18 17:47:13;;;;;;;3.45;2.35;;;;;;;;;;10473450;28;20064;-76
2022/11/18 17:52:14;;;;;;;2.92;2.40;;;;;;;;;;10479600;28;20036;-77
2022/11/18 17:57:14;;;;;;;3.33;2.40;;;;;;;;;;10464796;28;20148;-77
2022/11/18 18:02:15;;;;;;;3.73;3.10;;;;;;;;;;10451073;28;20295;-77
2022/11/18 18:07:15;;;;;;;4.57;3.47;;;;;;;;;;10483396;28;20287;-76
2022/11/18 18:17:35;;;;;;;7.22;5.38;;;;;;;;;;10480626;28;20422;-76
2022/11/18 18:22:35;;;;;;;7.47;5.07;;;;;;;;;;10465718;28;20198;-75
2022/11/18 18:27:36;;;;;;;3.90;2.37;;;;;;;;;;10472128;28;20978;-77
2022/11/18 18:32:39;;;;;;;3.63;2.83;;;;;;;;;;10481242;28;20032;-78
2022/11/18 18:37:39;;;;;;;3.93;2.90;;;;;;;;;;10485155;28;20098;-75
2022/11/18 18:42:40;;;;;;;4.47;2.60;;;;;;;;;;10474352;28;20051;-76
2022/11/18 18:47:41;;;;;;;4.97;2.88;;;;;;;;;;10477943;28;20036;-76
2022/11/18 18:52:42;;;;;;;2.95;2.22;;;;;;;;;;10483390;28;20036;-75
2022/11/18 18:57:42;;;;;;;4.28;2.90;;;;;;;;;;10460434;28;20060;-76
2022/11/18 19:02:43;;;;;;;5.77;2.80;;;;;;;;;;10468483;28;20056;-79
2022/11/18 19:07:47;;;;;;;3.53;3.15;;;;;;;;;;10490479;28;20638;-76
2022/11/18 19:12:51;;;;;;;6.32;4.03;;;;;;;;;;10477211;28;20036;-78
2022/11/18 19:17:51;;;;;;;7.00;4.25;;;;;;;;;;10483076;28;20035;-76
2022/11/18 19:22:51;;;;;;;4.00;3.60;;;;;;;;;;10468212;28;20113;-77
2022/11/18 19:27:52;;;;;;;5.70;4.37;;;;;;;;;;10477511;28;20298;-77
2022/11/18 19:32:54;;;;;;;7.25;3.67;;;;;;;;;;10459258;28;20290;-79
2022/11/18 19:37:55;;;;;;;4.07;3.57;;;;;;;;;;10481819;28;20479;-76
2022/11/18 19:42:55;;;;;;;5.32;3.78;;;;;;;;;;10485237;28;20029;-76
2022/11/18 19:47:57;;;;;;;3.40;2.97;;;;;;;;;;10484671;28;20119;-75
2022/11/18 19:52:57;;;;;;;4.07;3.05;;;;;;;;;;10484349;28;20275;-78
2022/11/18 19:57:58;;;;;;;4.75;2.92;;;;;;;;;;10468252;28;20029;-77
2022/11/18 20:02:58;;;;;;;4.67;3.47;;;;;;;;;;10477819;28;20028;-77
2022/11/18 20:07:59;;;;;;;3.93;3.10;;;;;;;;;;10466354;28;20338;-77
2022/11/18 20:13:00;;;;;;;6.25;3.78;;;;;;;;;;10488377;28;20337;-79
2022/11/18 20:18:00;;;;;;;5.93;3.97;;;;;;;;;;10462187;28;20797;-76
2022/11/18 20:23:01;;;;;;;4.33;3.43;;;;;;;;;;10458529;28;20040;-79
2022/11/18 20:28:01;;;;;;;5.18;3.58;;;;;;;;;;10481105;28;20037;-78
2022/11/18 20:33:02;;;;;;;5.60;3.97;;;;;;;;;;10482964;28;20024;-78
2022/11/18 20:38:02;;;;;;;7.22;4.20;;;;;;;;;;10464345;28;20507;-76
2022/11/18 20:43:12;;;;;;;6.93;4.32;;;;;;;;;;10467374;28;20544;-78
2022/11/18 20:48:13;;;;;;;6.15;3.70;;;;;;;;;;10460742;28;20146;-78
2022/11/18 20:53:13;;;;;;;5.47;3.22;;;;;;;;;;10481312;28;20029;-77
2022/11/18 20:58:14;;;;;;;4.88;3.25;;;;;;;;;;10482758;28;20025;-80
2022/11/18 21:03:19;;;;;;;4.20;2.97;;;;;;;;;;10480268;28;20039;-77
2022/11/18 21:08:20;;;;;;;4.00;2.88;;;;;;;;;;10480805;28;20044;-78
2022/11/18 21:18:39;;;;;;;4.50;3.10;;;;;;;;;;10464476;28;20393;-76
2022/11/18 21:23:40;;;;;;;5.32;3.28;;;;;;;;;;10479479;28;20036;-77
2022/11/18 21:28:40;;;;;;;4.40;2.72;;;;;;;;;;10469047;28;20049;-79
2022/11/18 21:33:40;;;;;;;4.47;2.70;;;;;;;;;;10470062;28;20041;-76
2022/11/18 21:38:42;;;;;;;5.00;3.33;;;;;;;;;;10465411;28;20128;-76
2022/11/18 21:43:43;;;;;;;5.30;3.45;;;;;;;;;;10474305;28;20072;-77
2022/11/18 21:48:43;;;;;;;3.70;2.63;;;;;;;;;;10471121;28;20047;-78
2022/11/18 21:53:44;;;;;;;4.10;3.25;;;;;;;;;;10459967;28;20040;-77
2022/11/18 21:58:46;;;;;;;4.93;3.55;;;;;;;;;;10465736;28;20043;-75
2022/11/18 22:03:47;;;;;;;4.28;3.15;;;;;;;;;;10476048;28;20429;-75
2022/11/18 22:08:47;;;;;;;4.97;3.60;;;;;;;;;;10480038;28;20136;-78
2022/11/18 22:13:49;;;;;;;5.45;3.53;;;;;;;;;;10476318;28;20037;-77
2022/11/18 22:18:50;;;;;;;5.15;3.47;;;;;;;;;;10475457;28;20095;-76
2022/11/18 22:23:50;;;;;;;5.45;3.60;;;;;;;;;;10480447;28;20025;-76
2022/11/18 22:28:52;;;;;;;4.55;3.47;;;;;;;;;;10458338;28;20041;-76
2022/11/18 22:33:53;;;;;;;5.18;3.78;;;;;;;;;;10476347;28;20051;-77
2022/11/18 22:38:54;;;;;;;5.82;3.65;;;;;;;;;;10477950;28;20119;-77
2022/11/18 22:43:55;;;;;;;4.85;3.55;;;;;;;;;;10484106;28;20037;-76
2022/11/18 22:48:56;;;;;;;5.72;3.58;;;;;;;;;;10465261;28;20041;-77
2022/11/18 22:53:56;;;;;;;5.32;4.00;;;;;;;;;;10472486;28;20120;-77
2022/11/18 22:58:56;;;;;;;7.18;4.55;;;;;;;;;;10477728;28;20086;-78
2022/11/18 23:03:57;;;;;;;6.18;4.38;;;;;;;;;;10464258;28;20068;-77
2022/11/18 23:08:57;;;;;;;7.60;4.75;;;;;;;;;;10473894;28;20033;-77
2022/11/18 23:14:03;;;;;;;7.95;5.03;;;;;;;;;;10472256;28;20025;-77
2022/11/18 23:19:04;;;;;;;7.40;4.88;;;;;;;;;;10483110;28;20048;-77
2022/11/18 23:24:05;;;;;;;7.93;5.55;;;;;;;;;;10466362;28;20039;-78
2022/11/18 23:29:05;;;;;;;7.80;5.13;;;;;;;;;;10487972;28;20083;-75
2022/11/18 23:34:10;;;;;;;9.67;5.73;;;;;;;;;;10477495;28;20047;-76
2022/11/18 23:39:12;;;;;;;10.90;6.43;;;;;;;;;;10477475;28;20691;-76
2022/11/18 23:44:12;;;;;;;12.80;6.95;;;;;;;;;;10462658;28;20040;-77
2022/11/18 23:49:13;;;;;;;12.40;7.17;;;;;;;;;;10465040;28;20067;-76
2022/11/18 23:54:13;;;;;;;12.57;7.18;;;;;;;;;;10456465;28;20763;-76
2022/11/18 23:59:14;;;;;;;14.70;8.02;;;;;;;;;;10458988;28;20095;-76
